Time;durP1;ratioP1;P1;durP2;ratioP2;P2;SDS_P1;SDS_P2;PMS_P1;PMS_P2;Temp;Humidity;BMP_temperature;BMP_pressure;BME280_temperature;BME280_humidity;BME280_pressure;Samples;Min_cycle;Max_cycle;Signal;HPM_P1;HPM_P2
2023/05/26 00:01:21;;;;;;;;;;;;;;;11.10;67.37;102858.50;5042685;28;20001;-65
2023/05/26 00:03:48;;;;;;;;;;;;;;;11.07;67.52;102860.56;5032901;28;19917;-65
2023/05/26 00:06:14;;;;;;;;;;;;;;;11.03;67.48;102861.78;5045029;28;19978;-65
2023/05/26 00:08:39;;;;;;;;;;;;;;;11.01;67.76;102871.72;5048211;28;19948;-65
2023/05/26 00:11:05;;;;;;;;;;;;;;;10.98;68.15;102863.94;5049756;28;20435;-65
2023/05/26 00:13:30;;;;;;;;;;;;;;;10.95;68.19;102866.84;5037252;28;19920;-65
2023/05/26 00:15:55;;;;;;;;;;;;;;;10.91;68.29;102870.75;5038518;28;19924;-65
2023/05/26 00:18:20;;;;;;;;;;;;;;;10.89;68.03;102870.00;5032355;28;19923;-65
2023/05/26 00:20:45;;;;;;;;;;;;;;;10.84;68.32;102871.22;5042183;28;20344;-65
2023/05/26 00:23:11;;;;;;;;;;;;;;;10.80;68.48;102872.44;5035904;28;19917;-65
2023/05/26 00:25:36;;;;;;;;;;;;;;;10.76;69.04;102873.66;5038996;28;19917;-65
2023/05/26 00:28:01;;;;;;;;;;;;;;;10.74;69.00;102872.09;5032228;28;19952;-64
2023/05/26 00:30:27;;;;;;;;;;;;;;;10.70;68.79;102874.16;5045018;28;20043;-64
2023/05/26 00:32:52;;;;;;;;;;;;;;;10.68;69.42;102875.22;5047470;28;19924;-65
2023/05/26 00:35:17;;;;;;;;;;;;;;;10.65;69.18;102880.78;5041357;28;19925;-65
2023/05/26 00:37:43;;;;;;;;;;;;;;;10.62;69.58;102881.88;5047295;28;19971;-65
2023/05/26 00:40:08;;;;;;;;;;;;;;;10.59;69.68;102874.13;5050009;28;19920;-65
2023/05/26 00:42:33;;;;;;;;;;;;;;;10.57;69.76;102878.72;5046529;28;19920;-64
2023/05/26 00:44:59;;;;;;;;;;;;;;;10.55;69.65;102880.66;5045705;28;21466;-65
2023/05/26 00:47:24;;;;;;;;;;;;;;;10.53;70.19;102877.28;5043670;28;19955;-65
2023/05/26 00:49:49;;;;;;;;;;;;;;;10.51;69.77;102879.22;5040805;28;20393;-65
2023/05/26 00:52:14;;;;;;;;;;;;;;;10.49;69.95;102875.84;5047784;28;19917;-64
2023/05/26 00:54:41;;;;;;;;;;;;;;;10.47;70.04;102875.97;5045203;28;20053;-65
2023/05/26 00:57:07;;;;;;;;;;;;;;;10.43;70.02;102874.50;5041678;28;20418;-65
2023/05/26 00:59:32;;;;;;;;;;;;;;;10.41;70.44;102883.56;5032997;28;19925;-65
2023/05/26 01:01:58;;;;;;;;;;;;;;;10.37;70.70;102877.63;5035651;28;19923;-65
2023/05/26 01:04:24;;;;;;;;;;;;;;;10.37;70.45;102879.44;5036522;28;19924;-65
2023/05/26 01:06:50;;;;;;;;;;;;;;;10.34;70.43;102877.88;5038568;28;19917;-65
2023/05/26 01:09:16;;;;;;;;;;;;;;;10.31;70.50;102878.09;5033285;28;19924;-65
2023/05/26 01:11:47;;;;;;;;;;;;;;;10.28;70.86;102874.84;5041191;28;19913;-65
2023/05/26 01:14:21;;;;;;;;;;;;;;;10.23;71.03;102875.22;5038291;28;19924;-65
2023/05/26 01:16:53;;;;;;;;;;;;;;;10.20;70.91;102873.63;5044700;28;20329;-65
2023/05/26 01:19:36;;;;;;;;;;;;;;;10.12;71.07;102876.00;5039918;28;20008;-65
2023/05/26 01:22:20;;;;;;;;;;;;;;;10.16;71.04;102888.09;5035530;28;19921;-65
2023/05/26 01:24:55;;;;;;;;;;;;;;;10.13;70.98;102885.66;5030911;28;19913;-65
2023/05/26 01:27:28;;;;;;;;;;;;;;;10.11;71.21;102886.72;5038775;28;19971;-65
2023/05/26 01:29:54;;;;;;;;;;;;;;;10.09;71.44;102886.84;5036903;28;20031;-65
2023/05/26 01:32:19;;;;;;;;;;;;;;;10.08;71.25;102886.97;5039027;28;20400;-65
2023/05/26 01:34:44;;;;;;;;;;;;;;;10.04;71.40;102888.16;5043414;28;20489;-65
2023/05/26 01:37:10;;;;;;;;;;;;;;;10.03;71.24;102894.44;5040628;28;19924;-65
2023/05/26 01:39:36;;;;;;;;;;;;;;;10.00;71.37;102890.19;5045435;28;20407;-65
2023/05/26 01:42:33;;;;;;;;;;;;;;;9.98;71.67;102885.97;5035979;28;19966;-65
2023/05/26 01:45:04;;;;;;;;;;;;;;;9.93;71.69;102881.03;5003829;28;19921;-65
2023/05/26 01:47:30;;;;;;;;;;;;;;;9.91;71.94;102890.91;5038134;28;19913;-65
2023/05/26 01:49:58;;;;;;;;;;;;;;;9.87;71.84;102897.41;5045208;28;20024;-65
2023/05/26 01:52:24;;;;;;;;;;;;;;;9.83;72.21;102899.47;5041313;28;19920;-65
2023/05/26 01:54:56;;;;;;;;;;;;;;;9.81;72.00;102895.19;5041802;28;19921;-65
2023/05/26 01:57:22;;;;;;;;;;;;;;;9.79;71.97;102897.13;5044776;28;20301;-65
2023/05/26 01:59:47;;;;;;;;;;;;;;;9.75;72.12;102893.84;5036552;28;19917;-65
2023/05/26 02:02:12;;;;;;;;;;;;;;;9.73;72.06;102898.44;5046090;28;20290;-65
2023/05/26 02:04:38;;;;;;;;;;;;;;;9.71;72.29;102902.16;5042988;28;20429;-65
2023/05/26 02:07:05;;;;;;;;;;;;;;;9.67;72.12;102893.59;5042044;28;19929;-65
2023/05/26 02:09:30;;;;;;;;;;;;;;;9.66;72.36;102901.66;5040632;28;19948;-65
2023/05/26 02:11:56;;;;;;;;;;;;;;;9.63;71.96;102902.75;5036861;28;19952;-65
2023/05/26 02:14:21;;;;;;;;;;;;;;;9.61;72.17;102900.19;5040744;28;19916;-65
2023/05/26 02:16:46;;;;;;;;;;;;;;;9.60;71.91;102902.97;5040621;28;19961;-65
2023/05/26 02:19:12;;;;;;;;;;;;;;;9.58;72.30;102904.91;5041280;28;19925;-65
2023/05/26 02:21:38;;;;;;;;;;;;;;;9.54;72.06;102904.28;5045586;28;19939;-65
2023/05/26 02:24:03;;;;;;;;;;;;;;;9.52;72.07;102903.50;5043380;28;20382;-65
2023/05/26 02:26:28;;;;;;;;;;;;;;;9.50;72.38;102912.53;5046266;28;19936;-65
2023/05/26 02:28:55;;;;;;;;;;;;;;;9.48;72.52;102906.50;5045116;28;19917;-65
2023/05/26 02:31:21;;;;;;;;;;;;;;;9.46;72.47;102911.09;5041378;28;19917;-65
2023/05/26 02:33:46;;;;;;;;;;;;;;;9.43;72.38;102914.81;5042645;28;19971;-66
2023/05/26 02:36:11;;;;;;;;;;;;;;;9.43;72.54;102916.63;5035620;28;19917;-65
2023/05/26 02:38:36;;;;;;;;;;;;;;;9.40;72.71;102915.03;5031813;28;20454;-65
2023/05/26 02:41:01;;;;;;;;;;;;;;;9.39;72.68;102920.44;5029303;28;19917;-65
2023/05/26 02:43:27;;;;;;;;;;;;;;;9.37;72.54;102920.56;5047730;28;20405;-65
2023/05/26 02:45:52;;;;;;;;;;;;;;;9.36;72.70;102924.19;5046711;28;19928;-65
2023/05/26 02:48:17;;;;;;;;;;;;;;;9.35;72.51;102921.63;5045714;28;20517;-65
2023/05/26 02:50:43;;;;;;;;;;;;;;;9.33;72.60;102916.44;5046240;28;19924;-65
2023/05/26 02:53:08;;;;;;;;;;;;;;;9.30;72.61;102912.22;5049398;28;20369;-65
2023/05/26 02:55:33;;;;;;;;;;;;;;;9.30;72.80;102916.66;5042891;28;20004;-65
2023/05/26 02:57:59;;;;;;;;;;;;;;;9.28;72.65;102908.84;5048785;28;20332;-65
2023/05/26 03:00:24;;;;;;;;;;;;;;;9.27;72.62;102908.94;5040966;28;20278;-65
2023/05/26 03:02:50;;;;;;;;;;;;;;;9.26;72.92;102909.91;5048394;28;20567;-65
2023/05/26 03:05:15;;;;;;;;;;;;;;;9.23;73.03;102910.09;5046026;28;19920;-65
2023/05/26 03:07:40;;;;;;;;;;;;;;;9.22;73.21;102905.75;5049787;28;19927;-65
2023/05/26 03:10:05;;;;;;;;;;;;;;;9.21;73.00;102907.56;5049773;28;19924;-65
2023/05/26 03:12:31;;;;;;;;;;;;;;;9.20;73.03;102902.38;5048574;28;20374;-65
2023/05/26 03:14:57;;;;;;;;;;;;;;;9.19;73.13;102908.63;5045537;28;19917;-65
2023/05/26 03:17:22;;;;;;;;;;;;;;;9.16;73.41;102908.84;5042447;28;19917;-65
2023/05/26 03:19:47;;;;;;;;;;;;;;;9.14;73.34;102911.63;5045065;28;19925;-65
2023/05/26 03:22:12;;;;;;;;;;;;;;;9.13;73.44;102911.72;5036359;28;19917;-65
2023/05/26 03:24:37;;;;;;;;;;;;;;;9.11;73.63;102921.59;5048576;28;19917;-65
2023/05/26 03:27:03;;;;;;;;;;;;;;;9.09;73.30;102921.72;5046842;28;19913;-65
2023/05/26 03:29:30;;;;;;;;;;;;;;;9.07;73.55;102922.78;5049302;28;20602;-65
2023/05/26 03:31:55;;;;;;;;;;;;;;;9.05;73.61;102917.59;5036575;28;19924;-65
2023/05/26 03:34:21;;;;;;;;;;;;;;;9.04;74.08;102928.31;5041683;28;20498;-65
2023/05/26 03:36:48;;;;;;;;;;;;;;;9.02;73.90;102928.41;5047066;28;19917;-65
2023/05/26 03:39:14;;;;;;;;;;;;;;;9.02;73.90;102931.06;5048372;28;20123;-65
2023/05/26 03:41:39;;;;;;;;;;;;;;;9.01;73.97;102932.03;5043481;28;20034;-65
2023/05/26 03:44:04;;;;;;;;;;;;;;;8.99;74.08;102929.47;5053811;28;20298;-65
2023/05/26 03:46:30;;;;;;;;;;;;;;;8.97;74.24;102941.16;5043330;28;20387;-65
2023/05/26 03:48:55;;;;;;;;;;;;;;;8.95;74.47;102935.06;5043784;28;19936;-65
2023/05/26 03:51:20;;;;;;;;;;;;;;;8.94;74.28;102941.34;5050468;28;20004;-65
2023/05/26 03:53:45;;;;;;;;;;;;;;;8.92;74.75;102938.78;5047548;28;19917;-65
2023/05/26 03:56:10;;;;;;;;;;;;;;;8.90;74.90;102932.75;5040308;28;19932;-65
2023/05/26 03:58:36;;;;;;;;;;;;;;;8.88;75.05;102939.97;5042623;28;19964;-65
2023/05/26 04:01:01;;;;;;;;;;;;;;;8.89;75.24;102941.66;5042878;28;20034;-65
2023/05/26 04:03:26;;;;;;;;;;;;;;;8.87;75.06;102935.63;5046317;28;19912;-65
2023/05/26 04:05:52;;;;;;;;;;;;;;;8.88;75.35;102942.63;5047979;28;19935;-65
2023/05/26 04:08:17;;;;;;;;;;;;;;;8.88;75.36;102939.97;5041137;28;19917;-65
2023/05/26 04:10:42;;;;;;;;;;;;;;;8.88;75.45;102937.31;5042870;28;19924;-65
2023/05/26 04:13:07;;;;;;;;;;;;;;;8.88;75.46;102939.13;5049182;28;20314;-65
2023/05/26 04:15:32;;;;;;;;;;;;;;;8.88;75.52;102944.41;5047184;28;19917;-65
2023/05/26 04:17:57;;;;;;;;;;;;;;;8.87;75.58;102940.94;5048290;28;20297;-69
2023/05/26 04:20:23;;;;;;;;;;;;;;;8.87;75.66;102948.88;5041631;28;20016;-71
2023/05/26 04:22:49;;;;;;;;;;;;;;;8.88;75.88;102947.91;5034444;28;20231;-66
2023/05/26 04:25:14;;;;;;;;;;;;;;;8.89;75.86;102944.31;5046639;28;19928;-63
2023/05/26 04:27:39;;;;;;;;;;;;;;;8.90;76.10;102959.25;5042207;28;19960;-62
2023/05/26 04:30:05;;;;;;;;;;;;;;;8.93;75.94;102958.19;5032765;28;19917;-63
2023/05/26 04:32:30;;;;;;;;;;;;;;;8.94;75.95;102960.72;5041046;28;19913;-63
2023/05/26 04:34:58;;;;;;;;;;;;;;;8.95;75.99;102953.63;5040277;28;19921;-66
2023/05/26 04:37:23;;;;;;;;;;;;;;;8.94;76.34;102950.13;5038042;28;19966;-66
2023/05/26 04:39:48;;;;;;;;;;;;;;;8.96;76.46;102952.66;5036590;28;20003;-59
2023/05/26 04:42:13;;;;;;;;;;;;;;;8.98;76.54;102964.03;5041133;28;20425;-62
2023/05/26 04:44:40;;;;;;;;;;;;;;;8.99;76.22;102952.47;5045199;28;20058;-63
2023/05/26 04:47:08;;;;;;;;;;;;;;;9.02;76.43;102956.72;5517893;23;20205;-59
2023/05/26 10:17:25;;;;;;;;;;;;;;;17.94;47.94;103009.25;6083298;23;20126;31
2023/05/26 10:19:51;;;;;;;;;;;;;;;18.11;48.14;103006.56;4939305;28;19936;-69
2023/05/26 10:22:35;;;;;;;;;;;;;;;18.25;48.05;103011.28;4913674;28;19926;-65
2023/05/26 10:25:02;;;;;;;;;;;;;;;18.40;46.81;103006.06;4910571;29;19919;-63
2023/05/26 10:27:40;;;;;;;;;;;;;;;18.51;46.36;102998.50;4911239;29;19970;-62
2023/05/26 10:30:10;;;;;;;;;;;;;;;18.58;45.53;103001.34;4908108;29;19982;-62
2023/05/26 10:32:42;;;;;;;;;;;;;;;18.63;45.18;103003.56;4911118;29;19919;-64
2023/05/26 10:35:26;;;;;;;;;;;;;;;18.69;45.09;102987.56;4908765;29;21156;-64
2023/05/26 10:37:54;;;;;;;;;;;;;;;18.75;44.91;102994.09;4914024;29;19919;-66
2023/05/26 10:40:41;;;;;;;;;;;;;;;18.78;43.54;102985.66;4908053;29;19923;-64
2023/05/26 10:43:06;;;;;;;;;;;;;;;18.85;43.83;102994.75;4911469;29;19930;-61
2023/05/26 10:45:32;;;;;;;;;;;;;;;18.86;44.01;102991.88;4910912;29;19928;-61
2023/05/26 10:48:05;;;;;;;;;;;;;;;18.90;43.48;102986.16;4909724;29;19915;-61
2023/05/26 10:50:51;;;;;;;;;;;;;;;18.98;43.11;102986.13;4905115;29;19920;-61
2023/05/26 10:53:20;;;;;;;;;;;;;;;19.08;43.42;102993.00;4905455;29;19923;-61
2023/05/26 10:55:54;;;;;;;;;;;;;;;19.18;44.17;102990.94;4906374;29;19919;-63
2023/05/26 10:58:28;;;;;;;;;;;;;;;19.30;43.48;102987.84;4909901;29;20288;-62
2023/05/26 11:00:54;;;;;;;;;;;;;;;19.36;42.95;102982.56;4912815;29;20018;-62
2023/05/26 11:03:36;;;;;;;;;;;;;;;19.39;42.29;102979.56;4903172;29;19927;-65
2023/05/26 16:08:31;;;;;;;;;;;;;;;37.60;15.17;102843.03;5218374;23;19926;-67
2023/05/26 16:10:57;;;;;;;;;;;;;;;37.53;15.66;102843.41;4957189;28;20543;-67
2023/05/26 16:13:22;;;;;;;;;;;;;;;36.67;15.61;102828.16;4946691;28;20399;-62
2023/05/26 16:15:47;;;;;;;;;;;;;;;34.24;16.91;102826.50;4950585;28;19918;-70
2023/05/26 16:18:13;;;;;;;;;;;;;;;31.78;18.60;102823.66;4943121;28;20405;-62
2023/05/26 16:20:38;;;;;;;;;;;;;;;29.96;20.10;102827.97;4947841;28;20429;-63
2023/05/26 16:23:03;;;;;;;;;;;;;;;28.45;21.00;102823.16;4946892;28;19918;-62
2023/05/26 16:25:28;;;;;;;;;;;;;;;27.14;22.89;102811.59;4947977;28;19977;-62
2023/05/26 16:27:54;;;;;;;;;;;;;;;26.08;24.21;102806.66;4945187;28;19918;-62
2023/05/26 16:30:19;;;;;;;;;;;;;;;25.26;25.40;102810.50;4942524;28;20406;-62
2023/05/26 16:32:46;;;;;;;;;;;;;;;24.57;26.34;102809.41;4941263;28;21417;-62
2023/05/26 16:35:11;;;;;;;;;;;;;;;24.07;27.02;102813.75;4949314;28;20330;-62
2023/05/26 16:37:36;;;;;;;;;;;;;;;23.76;27.62;102814.44;4942782;28;19965;-62
2023/05/26 16:40:02;;;;;;;;;;;;;;;23.52;27.75;102810.44;4942362;28;20421;-61
2023/05/26 16:42:27;;;;;;;;;;;;;;;23.26;28.84;102805.00;4944403;28;19926;-62
2023/05/26 16:44:52;;;;;;;;;;;;;;;22.89;29.39;102801.81;4948576;28;20369;-62
2023/05/26 16:47:17;;;;;;;;;;;;;;;22.61;29.81;102807.31;4945775;28;20392;-62
2023/05/26 16:49:43;;;;;;;;;;;;;;;22.32;30.49;102807.59;4948691;28;19939;-62
2023/05/26 16:52:08;;;;;;;;;;;;;;;21.99;30.72;102802.81;4946891;28;20514;-62
2023/05/26 16:54:33;;;;;;;;;;;;;;;21.76;31.03;102796.81;4948236;28;19922;-62
2023/05/26 16:56:58;;;;;;;;;;;;;;;21.53;31.37;102803.28;4946398;28;19922;-62
2023/05/26 16:59:23;;;;;;;;;;;;;;;21.38;31.85;102812.50;4943812;28;20022;-62
2023/05/26 17:01:48;;;;;;;;;;;;;;;21.21;32.59;102804.66;4949290;28;19918;-62
2023/05/26 17:04:14;;;;;;;;;;;;;;;21.13;33.09;102803.94;4944118;28;19953;-62
2023/05/26 17:06:39;;;;;;;;;;;;;;;21.03;33.36;102802.38;4947517;28;19974;-61
2023/05/26 17:09:06;;;;;;;;;;;;;;;20.98;33.87;102806.69;4884322;28;1708184;-62
2023/05/26 17:11:31;;;;;;;;;;;;;;;20.87;33.65;102807.19;4943429;28;19919;-62
2023/05/26 17:13:56;;;;;;;;;;;;;;;20.75;34.14;102801.44;4941491;28;19919;-62
2023/05/26 17:16:22;;;;;;;;;;;;;;;20.67;34.31;102818.59;4930863;28;19930;-62
2023/05/26 17:18:47;;;;;;;;;;;;;;;20.61;34.23;102810.41;4942490;28;19930;-62
2023/05/26 17:21:12;;;;;;;;;;;;;;;20.54;34.88;102815.75;4945244;28;20013;-62
2023/05/26 17:23:37;;;;;;;;;;;;;;;20.42;34.66;102815.38;4945746;28;20430;-62
2023/05/26 17:26:03;;;;;;;;;;;;;;;20.28;35.02;102820.75;4940302;28;20316;-62
2023/05/26 17:28:29;;;;;;;;;;;;;;;20.12;35.21;102816.38;4945682;28;19918;-62
2023/05/26 17:30:54;;;;;;;;;;;;;;;20.04;36.06;102820.00;4946518;28;19922;-61
2023/05/26 17:33:19;;;;;;;;;;;;;;;19.96;36.72;102819.25;4945764;28;19922;-61
2023/05/26 17:35:44;;;;;;;;;;;;;;;19.91;36.99;102827.88;4946978;28;20005;-62
2023/05/26 17:38:10;;;;;;;;;;;;;;;19.84;37.00;102818.84;4944559;28;19966;-62
2023/05/26 17:40:35;;;;;;;;;;;;;;;19.80;37.03;102821.06;4947445;28;19926;-62
2023/05/26 17:43:00;;;;;;;;;;;;;;;19.76;37.22;102818.94;4941057;28;19925;-61
2023/05/26 17:45:27;;;;;;;;;;;;;;;19.62;37.54;102817.88;4946405;28;20310;-62
2023/05/26 17:47:52;;;;;;;;;;;;;;;19.59;37.77;102833.56;4944638;28;19922;-62
2023/05/26 17:50:18;;;;;;;;;;;;;;;19.52;37.95;102824.50;4944957;28;19944;-62
2023/05/26 17:52:43;;;;;;;;;;;;;;;19.40;37.98;102829.50;4941462;28;19976;-62
2023/05/26 17:55:08;;;;;;;;;;;;;;;19.30;38.14;102831.56;4949200;28;19966;-62
2023/05/26 17:57:33;;;;;;;;;;;;;;;19.22;37.94;102834.34;4945291;28;20383;-62
2023/05/26 17:59:59;;;;;;;;;;;;;;;19.10;38.17;102820.47;4947198;28;20386;-62
2023/05/26 18:02:24;;;;;;;;;;;;;;;18.99;38.39;102831.63;4945288;28;19925;-62
2023/05/26 18:04:49;;;;;;;;;;;;;;;18.90;38.65;102827.31;4946892;28;19942;-61
2023/05/26 18:07:14;;;;;;;;;;;;;;;18.83;39.32;102835.25;4944082;28;19929;-62
2023/05/26 18:09:39;;;;;;;;;;;;;;;18.73;39.32;102837.31;4950112;28;19914;-62
2023/05/26 18:12:09;;;;;;;;;;;;;;;18.60;39.58;102835.16;4941031;28;19962;-62
2023/05/26 18:14:34;;;;;;;;;;;;;;;18.59;39.50;102844.25;4946859;28;19926;-62
2023/05/26 18:16:59;;;;;;;;;;;;;;;18.54;40.36;102844.78;4945436;28;19937;-62
2023/05/26 18:19:24;;;;;;;;;;;;;;;18.46;40.49;102854.72;4951530;28;19977;-62
2023/05/26 18:21:50;;;;;;;;;;;;;;;18.37;40.69;102847.69;4947317;28;19990;-62
2023/05/26 18:24:15;;;;;;;;;;;;;;;18.26;40.84;102844.38;4949439;28;19925;-62
2023/05/26 18:26:41;;;;;;;;;;;;;;;18.14;40.83;102848.41;4952847;28;19926;-61
2023/05/26 18:29:07;;;;;;;;;;;;;;;18.03;40.67;102850.63;4949847;28;19924;-62
2023/05/26 18:31:32;;;;;;;;;;;;;;;17.90;41.24;102843.06;4950315;28;19978;-62
2023/05/26 18:33:58;;;;;;;;;;;;;;;17.81;41.37;102844.09;4950819;28;19926;-62
2023/05/26 18:36:23;;;;;;;;;;;;;;;17.72;41.22;102840.59;4951185;28;19930;-62
2023/05/26 18:38:48;;;;;;;;;;;;;;;17.63;41.50;102846.91;4948492;28;19926;-62
2023/05/26 18:41:13;;;;;;;;;;;;;;;17.55;42.06;102844.22;4944648;28;19923;-61
2023/05/26 18:43:38;;;;;;;;;;;;;;;17.48;42.09;102854.81;4947796;28;19918;-62
2023/05/26 18:46:04;;;;;;;;;;;;;;;17.38;42.23;102856.84;4950797;28;19956;-62
2023/05/26 18:48:29;;;;;;;;;;;;;;;17.31;42.43;102850.41;4941269;28;20414;-62
2023/05/26 18:50:56;;;;;;;;;;;;;;;17.24;42.80;102847.56;4950928;28;21508;-61
2023/05/26 18:53:21;;;;;;;;;;;;;;;17.18;43.18;102850.06;4945598;28;19918;-62
2023/05/26 18:55:46;;;;;;;;;;;;;;;17.09;43.16;102849.22;4932611;28;20590;-62
2023/05/26 18:58:11;;;;;;;;;;;;;;;17.03;43.44;102856.06;4948738;28;19918;-62
2023/05/26 19:00:38;;;;;;;;;;;;;;;16.97;43.82;102855.88;4951540;28;20323;-62
2023/05/26 19:03:03;;;;;;;;;;;;;;;16.89;43.47;102851.34;4943239;28;19945;-61
2023/05/26 19:05:29;;;;;;;;;;;;;;;16.83;43.78;102852.00;4946545;28;19923;-62
2023/05/26 19:07:54;;;;;;;;;;;;;;;16.79;43.85;102858.72;4950196;28;20298;-61
2023/05/26 19:10:19;;;;;;;;;;;;;;;16.72;43.79;102857.66;4942437;28;20372;-62
2023/05/26 19:12:44;;;;;;;;;;;;;;;16.66;44.15;102859.13;4945001;28;19992;-62
2023/05/26 19:15:09;;;;;;;;;;;;;;;16.60;44.53;102861.59;4948650;28;19919;-61
2023/05/26 19:17:35;;;;;;;;;;;;;;;16.54;44.35;102870.28;4948263;28;19934;-62
2023/05/26 19:20:00;;;;;;;;;;;;;;;16.47;44.35;102869.22;4948920;28;19926;-61
2023/05/26 19:22:25;;;;;;;;;;;;;;;16.41;44.80;102866.19;4948064;28;20600;-61
2023/05/26 19:24:50;;;;;;;;;;;;;;;16.35;45.13;102861.47;4952567;28;19914;-61
2023/05/26 19:27:16;;;;;;;;;;;;;;;16.31;45.20;102868.16;4947963;28;19930;-62
2023/05/26 19:29:41;;;;;;;;;;;;;;;16.25;45.42;102868.78;4950234;28;20499;-61
2023/05/26 19:32:06;;;;;;;;;;;;;;;16.16;46.45;102874.25;4948238;28;19926;-62
2023/05/26 19:34:31;;;;;;;;;;;;;;;16.07;46.87;102873.34;4948733;28;19977;-61
2023/05/26 19:36:56;;;;;;;;;;;;;;;15.96;47.59;102876.31;4940665;28;20013;-61
2023/05/26 19:39:21;;;;;;;;;;;;;;;15.89;48.22;102881.41;4947769;28;19969;-62
2023/05/26 19:41:48;;;;;;;;;;;;;;;15.82;48.32;102882.19;4948594;28;19919;-62
2023/05/26 19:44:16;;;;;;;;;;;;;;;15.74;48.42;102883.81;4946575;28;19918;-61
2023/05/26 19:46:41;;;;;;;;;;;;;;;15.65;48.79;102878.56;4942928;28;20009;-61
2023/05/26 19:49:06;;;;;;;;;;;;;;;15.56;49.63;102885.63;4949983;28;20435;-61
2023/05/26 19:51:32;;;;;;;;;;;;;;;15.47;49.59;102891.91;4949099;28;19922;-62
2023/05/26 19:53:57;;;;;;;;;;;;;;;15.36;49.92;102887.63;4943471;28;19918;-61
2023/05/26 19:56:23;;;;;;;;;;;;;;;15.29;50.45;102891.88;4943429;28;19973;-62
2023/05/26 19:58:48;;;;;;;;;;;;;;;15.21;50.55;102891.81;4948532;28;20442;-61
2023/05/26 20:01:13;;;;;;;;;;;;;;;15.16;50.75;102891.44;4946071;28;19933;-62
2023/05/26 20:03:38;;;;;;;;;;;;;;;15.10;51.10;102892.03;4947379;28;20294;-62
2023/05/26 20:06:04;;;;;;;;;;;;;;;15.04;51.34;102889.97;4942258;28;19926;-62
2023/05/26 20:08:32;;;;;;;;;;;;;;;14.98;51.69;102891.38;4947284;28;19985;-62
2023/05/26 20:10:57;;;;;;;;;;;;;;;14.91;52.11;102898.31;4944398;28;19918;-62
2023/05/26 20:13:23;;;;;;;;;;;;;;;14.82;52.12;102902.75;4948907;28;19919;-61
2023/05/26 20:15:49;;;;;;;;;;;;;;;14.76;52.62;102902.50;4947785;28;19919;-61
2023/05/26 20:18:14;;;;;;;;;;;;;;;14.69;52.52;102904.88;4947143;28;19994;-62
2023/05/26 20:20:39;;;;;;;;;;;;;;;14.64;52.93;102899.16;4943521;28;20292;-61
2023/05/26 20:23:04;;;;;;;;;;;;;;;14.60;52.88;102902.25;4947024;28;19973;-62
2023/05/26 20:25:30;;;;;;;;;;;;;;;14.55;53.14;102902.72;4948812;28;19930;-61
2023/05/26 20:27:55;;;;;;;;;;;;;;;14.50;53.29;102905.81;4946148;28;19918;-62
2023/05/26 20:30:20;;;;;;;;;;;;;;;14.44;53.46;102906.38;4944755;28;20006;-62
2023/05/26 20:32:46;;;;;;;;;;;;;;;14.37;53.42;102891.03;4945498;28;20307;-61
2023/05/26 20:35:12;;;;;;;;;;;;;;;14.33;53.89;102906.53;4947900;28;20584;-61
2023/05/26 20:37:37;;;;;;;;;;;;;;;14.27;53.91;102899.09;4942880;28;20331;-61
2023/05/26 20:40:02;;;;;;;;;;;;;;;14.24;54.05;102899.38;4948999;28;19918;-61
2023/05/26 20:42:31;;;;;;;;;;;;;;;14.20;53.77;102901.50;4945651;28;19949;-61
2023/05/26 20:44:57;;;;;;;;;;;;;;;14.16;54.16;102905.44;4947077;28;19925;-61
2023/05/26 20:47:22;;;;;;;;;;;;;;;14.13;54.17;102904.88;4943029;28;19926;-61
2023/05/26 20:49:47;;;;;;;;;;;;;;;14.09;54.02;102906.16;4946786;28;20384;-61
2023/05/26 20:52:12;;;;;;;;;;;;;;;14.07;54.59;102910.81;4945395;28;19930;-62
2023/05/26 20:54:38;;;;;;;;;;;;;;;14.02;54.33;102908.56;4944218;28;19989;-61
2023/05/26 20:57:05;;;;;;;;;;;;;;;14.00;54.53;102910.53;4942437;28;20323;-62
2023/05/26 20:59:32;;;;;;;;;;;;;;;13.96;54.57;102914.47;4946635;28;19966;-62
2023/05/26 21:01:57;;;;;;;;;;;;;;;13.93;54.77;102912.09;4941739;28;20392;-61
2023/05/26 21:04:24;;;;;;;;;;;;;;;13.88;55.62;102904.50;4948408;28;19925;-63
2023/05/26 21:06:49;;;;;;;;;;;;;;;13.85;55.56;102912.78;4941682;28;19929;-62
2023/05/26 21:09:14;;;;;;;;;;;;;;;13.80;55.65;102901.69;4942956;28;19918;-62
2023/05/26 21:11:39;;;;;;;;;;;;;;;13.75;55.81;102903.94;4946326;29;20332;-62
2023/05/26 21:14:05;;;;;;;;;;;;;;;13.71;56.04;102904.38;4946866;28;19918;-62
2023/05/26 21:16:30;;;;;;;;;;;;;;;13.65;56.28;102905.78;4946061;28;19915;-62
2023/05/26 21:18:55;;;;;;;;;;;;;;;13.60;56.06;102897.34;4946048;28;20331;-63
2023/05/26 21:21:20;;;;;;;;;;;;;;;13.57;56.23;102903.78;4948848;28;20012;-62
2023/05/26 21:23:45;;;;;;;;;;;;;;;13.52;56.31;102900.69;4946375;28;19942;-62
2023/05/26 21:26:11;;;;;;;;;;;;;;;13.49;56.71;102903.66;4949074;28;19919;-62
2023/05/26 21:28:36;;;;;;;;;;;;;;;13.45;56.68;102901.41;4945184;28;20408;-62
2023/05/26 21:31:01;;;;;;;;;;;;;;;13.42;56.85;102901.69;4942139;28;19918;-62
2023/05/26 21:33:26;;;;;;;;;;;;;;;13.39;57.06;102907.28;4949560;28;19915;-62
2023/05/26 21:35:51;;;;;;;;;;;;;;;13.36;56.78;102903.06;4946369;28;20008;-62
2023/05/26 21:38:16;;;;;;;;;;;;;;;13.33;56.91;102901.53;4945035;28;19915;-62
2023/05/26 21:40:42;;;;;;;;;;;;;;;13.32;57.02;102893.66;4948490;28;19919;-62
2023/05/26 21:43:07;;;;;;;;;;;;;;;13.29;57.24;102900.09;4948675;28;19970;-62
2023/05/26 21:45:32;;;;;;;;;;;;;;;13.24;57.53;102901.50;4950265;28;20018;-63
2023/05/26 21:47:57;;;;;;;;;;;;;;;13.21;57.61;102894.59;4947297;28;20001;-62
2023/05/26 21:50:23;;;;;;;;;;;;;;;13.19;57.37;102903.75;4946071;28;19941;-62
2023/05/26 21:52:48;;;;;;;;;;;;;;;13.14;57.76;102895.28;4945336;28;19922;-62
2023/05/26 21:55:13;;;;;;;;;;;;;;;13.12;57.88;102897.25;4946189;28;19927;-62
2023/05/26 21:57:38;;;;;;;;;;;;;;;13.09;58.06;102893.03;4930867;28;19924;-62
2023/05/26 22:00:07;;;;;;;;;;;;;;;13.07;58.09;102902.16;4947375;28;19950;-62
2023/05/26 22:02:32;;;;;;;;;;;;;;;13.03;58.39;102904.25;4949979;28;19984;-62
2023/05/26 22:04:57;;;;;;;;;;;;;;;12.98;58.48;102901.13;4944401;28;20375;-62
2023/05/26 22:07:22;;;;;;;;;;;;;;;12.95;58.35;102906.72;4937613;28;19933;-62
2023/05/26 22:09:48;;;;;;;;;;;;;;;12.90;58.85;102900.94;4944713;28;20310;-62
2023/05/26 22:12:13;;;;;;;;;;;;;;;12.85;58.63;102908.53;4946025;28;20043;-62
2023/05/26 22:14:38;;;;;;;;;;;;;;;12.83;58.58;102894.47;4943546;28;19940;-62
2023/05/26 22:17:03;;;;;;;;;;;;;;;12.80;58.62;102892.94;4946742;28;19918;-62
2023/05/26 22:19:28;;;;;;;;;;;;;;;12.77;58.89;102898.53;4945396;28;19923;-62
2023/05/26 22:21:54;;;;;;;;;;;;;;;12.73;58.94;102896.28;4944883;28;19923;-62
2023/05/26 22:24:19;;;;;;;;;;;;;;;12.68;58.97;102902.81;4943733;28;19914;-62
2023/05/26 22:26:44;;;;;;;;;;;;;;;12.64;59.16;102900.56;4944314;28;19941;-63
2023/05/26 22:29:09;;;;;;;;;;;;;;;12.60;59.36;102896.50;4945801;28;19949;-62
2023/05/26 22:31:34;;;;;;;;;;;;;;;12.56;59.36;102897.72;4944708;28;19919;-62
2023/05/26 22:34:00;;;;;;;;;;;;;;;12.51;59.80;102903.47;4945076;28;19919;-62
2023/05/26 22:36:26;;;;;;;;;;;;;;;12.47;59.50;102907.38;4943935;28;19997;-62
2023/05/26 22:38:51;;;;;;;;;;;;;;;12.44;59.75;102896.16;4946488;28;19925;-62
2023/05/26 22:41:16;;;;;;;;;;;;;;;12.40;59.83;102896.38;4947200;28;19919;-63
2023/05/26 22:43:41;;;;;;;;;;;;;;;12.37;59.84;102901.97;4942888;28;19921;-62
2023/05/26 22:46:06;;;;;;;;;;;;;;;12.34;60.28;102896.06;4948837;28;19923;-62
2023/05/26 22:48:31;;;;;;;;;;;;;;;12.29;60.34;102887.63;4948297;28;19918;-62
2023/05/26 22:50:57;;;;;;;;;;;;;;;12.25;60.48;102892.38;4946543;28;19966;-62
2023/05/26 22:53:22;;;;;;;;;;;;;;;12.22;60.51;102889.97;4947266;28;19918;-62
2023/05/26 22:55:47;;;;;;;;;;;;;;;12.18;60.78;102887.72;4946131;28;20008;-62
2023/05/26 22:58:12;;;;;;;;;;;;;;;12.13;60.98;102893.41;4942235;28;19914;-63
2023/05/26 23:00:37;;;;;;;;;;;;;;;12.08;61.20;102891.16;4945138;28;19926;-62
2023/05/26 23:03:05;;;;;;;;;;;;;;;12.05;61.00;102894.06;4947894;28;20363;-62